createdAt,value
2022-10-01T00:01:19.437Z,10.50
2022-10-01T00:03:47.450Z,10.00
2022-10-01T00:06:18.299Z,10.10
2022-10-01T00:08:48.149Z,11.40
2022-10-01T00:11:25.776Z,11.10
2022-10-01T00:13:54.349Z,12.10
2022-10-01T00:16:25.161Z,12.50
2022-10-01T00:18:55.463Z,11.80
2022-10-01T00:21:26.814Z,10.30
2022-10-01T00:24:06.435Z,12.20
2022-10-01T00:26:37.169Z,11.30
2022-10-01T00:29:07.570Z,11.80
2022-10-01T00:31:34.181Z,11.90
2022-10-01T00:34:02.770Z,11.80
2022-10-01T00:36:31.197Z,11.10
2022-10-01T00:38:59.915Z,11.80
2022-10-01T00:41:29.815Z,11.80
2022-10-01T00:44:02.746Z,12.20
2022-10-01T00:46:40.000Z,11.50
2022-10-01T00:49:19.375Z,12.40
2022-10-01T00:52:00.050Z,11.80
2022-10-01T00:54:36.528Z,12.40
2022-10-01T00:57:05.721Z,12.20
2022-10-01T00:59:34.944Z,12.20
2022-10-01T01:02:01.533Z,11.20
2022-10-01T01:04:28.039Z,11.50
2022-10-01T01:06:59.036Z,10.70
2022-10-01T01:09:37.341Z,10.50
2022-10-01T01:12:47.733Z,11.00
2022-10-01T01:15:19.820Z,11.90
2022-10-01T01:18:05.079Z,11.90
2022-10-01T01:21:06.347Z,12.30
2022-10-01T01:24:06.986Z,11.10
2022-10-01T01:27:32.305Z,10.70
2022-10-01T01:30:11.022Z,11.30
2022-10-01T01:33:02.619Z,12.20
2022-10-01T01:35:37.040Z,12.90
2022-10-01T01:38:13.956Z,12.30
2022-10-01T01:40:45.254Z,12.80
2022-10-01T01:43:19.073Z,11.90
2022-10-01T01:45:51.005Z,11.50
2022-10-01T01:48:17.397Z,12.50
2022-10-01T01:50:51.923Z,12.50
2022-10-01T01:53:19.696Z,12.10
2022-10-01T01:55:48.782Z,12.30
2022-10-01T01:58:18.244Z,12.90
2022-10-01T02:00:51.890Z,13.00
2022-10-01T02:03:25.921Z,11.00
2022-10-01T02:06:43.709Z,10.60
2022-10-01T02:09:27.797Z,10.80
2022-10-01T02:12:22.127Z,11.70
2022-10-01T02:15:00.475Z,10.30
2022-10-01T02:17:38.640Z,11.80
2022-10-01T02:20:15.161Z,11.20
2022-10-01T02:22:56.942Z,10.80
2022-10-01T02:25:30.519Z,11.20
2022-10-01T02:28:12.733Z,10.40
2022-10-01T02:30:44.441Z,11.40
2022-10-01T02:33:15.355Z,11.90
2022-10-01T02:35:46.469Z,11.10
2022-10-01T02:38:16.289Z,11.50
2022-10-01T02:40:46.131Z,10.80
2022-10-01T02:43:22.275Z,11.80
2022-10-01T02:45:57.990Z,10.80
2022-10-01T02:48:26.707Z,11.40
2022-10-01T02:51:15.223Z,10.80
2022-10-01T02:53:48.683Z,11.00
2022-10-01T02:56:36.054Z,10.90
2022-10-01T02:59:06.939Z,10.70
2022-10-01T03:01:37.344Z,11.50
2022-10-01T03:04:04.052Z,11.40
2022-10-01T03:06:30.365Z,11.50
2022-10-01T03:08:56.974Z,11.90
2022-10-01T03:11:23.248Z,12.10
2022-10-01T03:13:49.641Z,12.40
2022-10-01T03:16:16.141Z,10.00
2022-10-01T03:18:42.623Z,10.40
2022-10-01T03:21:08.983Z,11.40
2022-10-01T03:23:35.343Z,11.30
2022-10-01T03:26:01.757Z,11.70
2022-10-01T03:28:28.189Z,11.80
2022-10-01T03:31:05.776Z,11.30
2022-10-01T03:33:32.148Z,10.70
2022-10-01T03:35:58.474Z,10.70
2022-10-01T03:38:25.030Z,10.30
2022-10-01T03:40:51.363Z,11.40
2022-10-01T03:43:17.673Z,11.20
2022-10-01T03:45:44.145Z,11.20
2022-10-01T03:48:10.546Z,11.60
2022-10-01T03:50:36.893Z,11.10
2022-10-01T03:53:03.297Z,11.50
2022-10-01T03:55:29.696Z,11.20
2022-10-01T03:57:56.712Z,10.50
2022-10-01T04:00:23.136Z,11.10
2022-10-01T04:02:49.520Z,10.80
2022-10-01T04:05:16.612Z,10.60
2022-10-01T04:07:43.032Z,11.70
2022-10-01T04:10:09.528Z,10.90
2022-10-01T04:12:36.283Z,11.90
2022-10-01T04:15:02.917Z,11.90
2022-10-01T04:17:29.295Z,10.40
2022-10-01T04:19:57.255Z,11.00
2022-10-01T04:22:23.572Z,11.80
2022-10-01T04:24:50.064Z,11.50
2022-10-01T04:27:16.423Z,11.80
2022-10-01T04:29:42.818Z,10.60
2022-10-01T04:32:09.183Z,11.60
2022-10-01T04:34:53.700Z,11.40
2022-10-01T04:37:21.517Z,10.70
2022-10-01T04:39:48.372Z,11.00
2022-10-01T04:42:15.524Z,11.70
2022-10-01T04:44:41.826Z,12.00
2022-10-01T04:47:08.627Z,11.70
2022-10-01T04:49:36.050Z,10.40
2022-10-01T04:52:03.782Z,11.20
2022-10-01T04:54:30.164Z,11.60
2022-10-01T04:56:57.851Z,11.20
2022-10-01T04:59:25.214Z,12.40
2022-10-01T05:01:51.856Z,11.80
2022-10-01T05:04:18.251Z,11.70
2022-10-01T05:06:44.592Z,12.20
2022-10-01T05:09:10.946Z,13.90
2022-10-01T05:11:38.565Z,13.20
2022-10-01T05:14:05.359Z,12.30
2022-10-01T05:16:31.866Z,13.00
2022-10-01T05:18:58.480Z,11.80
2022-10-01T05:21:24.894Z,12.50
2022-10-01T05:23:51.867Z,12.70
2022-10-01T05:26:18.282Z,12.80
2022-10-01T05:28:44.718Z,12.90
2022-10-01T05:31:12.817Z,12.20
2022-10-01T05:33:40.083Z,11.50
2022-10-01T05:36:06.607Z,12.00
2022-10-01T05:38:36.731Z,11.20
2022-10-01T05:41:04.494Z,11.80
2022-10-01T05:43:30.889Z,11.40
2022-10-01T05:46:02.899Z,11.80
2022-10-01T05:48:33.590Z,12.00
2022-10-01T05:50:59.902Z,11.80
2022-10-01T05:53:26.388Z,12.00
2022-10-01T05:55:53.060Z,11.50
2022-10-01T05:58:19.455Z,11.20
2022-10-01T06:00:45.850Z,12.50
2022-10-01T06:03:17.826Z,18.70
2022-10-01T06:05:44.337Z,16.80
2022-10-01T06:08:10.856Z,12.60
2022-10-01T06:10:38.135Z,12.40
2022-10-01T06:13:05.325Z,12.70
2022-10-01T06:15:37.610Z,14.40
2022-10-01T06:18:06.758Z,15.90
2022-10-01T06:20:34.123Z,16.10
2022-10-01T06:23:00.572Z,15.80
2022-10-01T06:25:31.127Z,15.80
2022-10-01T06:27:59.275Z,16.90
2022-10-01T06:30:28.927Z,16.60
2022-10-01T06:33:08.507Z,16.30
2022-10-01T06:35:40.161Z,16.60
2022-10-01T06:38:07.552Z,15.50
2022-10-01T06:40:33.898Z,16.50
2022-10-01T06:43:00.299Z,15.80
2022-10-01T06:45:29.235Z,16.20
2022-10-01T06:48:03.691Z,14.30
2022-10-01T06:50:32.110Z,10.30
2022-10-01T06:53:00.003Z,11.80
2022-10-01T06:55:30.890Z,12.50
2022-10-01T06:58:00.885Z,11.00
2022-10-01T07:00:31.984Z,11.40
2022-10-01T07:03:00.134Z,9.20
2022-10-01T07:05:27.594Z,10.20
2022-10-01T07:07:54.069Z,9.90
2022-10-01T07:10:22.751Z,9.20
2022-10-01T07:12:50.844Z,7.00
2022-10-01T07:15:23.087Z,7.30
2022-10-01T07:17:52.287Z,5.50
2022-10-01T07:20:20.758Z,6.60
2022-10-01T07:22:48.422Z,8.90
2022-10-01T07:25:15.559Z,9.60
2022-10-01T07:27:42.053Z,10.00
2022-10-01T07:30:09.239Z,9.60
2022-10-01T07:32:35.665Z,10.80
2022-10-01T07:35:02.118Z,11.80
2022-10-01T07:37:28.458Z,12.30
2022-10-01T07:39:54.797Z,11.50
2022-10-01T07:42:21.209Z,10.70
2022-10-01T07:44:47.667Z,11.60
2022-10-01T07:47:14.824Z,10.70
2022-10-01T07:49:41.156Z,10.80
2022-10-01T07:52:12.355Z,11.90
2022-10-01T07:54:40.358Z,10.80
2022-10-01T07:57:07.505Z,10.60
2022-10-01T07:59:33.836Z,11.30
2022-10-01T08:02:00.416Z,9.60
2022-10-01T08:04:45.764Z,10.80
2022-10-01T08:07:12.171Z,9.10
2022-10-01T08:09:39.310Z,8.90
2022-10-01T08:12:05.742Z,9.20
2022-10-01T08:14:32.097Z,9.00
2022-10-01T08:16:58.519Z,8.40
2022-10-01T08:19:24.985Z,8.10
2022-10-01T08:21:52.205Z,7.20
2022-10-01T08:24:19.557Z,8.50
2022-10-01T08:26:55.512Z,6.90
2022-10-01T08:29:22.423Z,8.30
2022-10-01T08:31:49.634Z,8.40
2022-10-01T08:34:16.607Z,9.70
2022-10-01T08:36:43.107Z,9.70
2022-10-01T08:39:13.034Z,9.20
2022-10-01T08:42:23.580Z,9.30
2022-10-01T08:44:52.249Z,8.30
2022-10-01T08:47:33.344Z,5.70
2022-10-01T08:50:25.739Z,5.90
2022-10-01T08:53:06.894Z,7.60
2022-10-01T08:55:36.800Z,7.40
2022-10-01T08:58:11.664Z,6.80
2022-10-01T09:00:45.958Z,8.60
2022-10-01T09:03:15.013Z,9.40
2022-10-01T09:06:00.799Z,8.70
2022-10-01T09:09:14.883Z,9.50
2022-10-01T09:12:03.742Z,9.00
2022-10-01T09:14:55.218Z,6.70
2022-10-01T09:17:54.358Z,7.70
2022-10-01T09:20:28.550Z,7.80
2022-10-01T09:23:17.995Z,6.40
2022-10-01T09:25:51.976Z,7.10
2022-10-01T09:28:51.701Z,7.70
2022-10-01T09:31:40.861Z,6.60
2022-10-01T09:34:15.101Z,7.20
2022-10-01T09:37:21.174Z,6.00
2022-10-01T09:40:05.882Z,6.00
2022-10-01T09:42:32.340Z,7.60
2022-10-01T09:44:59.218Z,7.30
2022-10-01T09:47:26.254Z,6.60
2022-10-01T09:49:52.746Z,7.70
2022-10-01T09:52:32.982Z,6.90
2022-10-01T09:55:06.681Z,7.90
2022-10-01T09:57:42.588Z,8.10
2022-10-01T10:00:21.425Z,7.20
2022-10-01T10:02:51.137Z,4.40
2022-10-01T10:05:39.328Z,6.70
2022-10-01T10:08:19.573Z,6.10
2022-10-01T10:10:59.836Z,6.80
2022-10-01T10:13:34.668Z,7.10
2022-10-01T10:16:26.911Z,7.30
2022-10-01T10:19:00.113Z,7.00
2022-10-01T10:21:34.414Z,7.00
2022-10-01T10:24:05.906Z,7.00
2022-10-01T10:26:38.241Z,7.30
2022-10-01T10:29:13.439Z,7.50
2022-10-01T10:31:44.371Z,5.70
2022-10-01T10:34:32.309Z,7.60
2022-10-01T10:37:06.941Z,6.70
2022-10-01T10:39:40.627Z,6.30
2022-10-01T10:42:07.962Z,6.40
2022-10-01T10:44:39.223Z,5.40
2022-10-01T10:47:18.722Z,6.50
2022-10-01T10:49:49.046Z,7.00
2022-10-01T10:52:37.089Z,6.30
2022-10-01T10:55:32.407Z,6.00
2022-10-01T10:58:14.614Z,6.20
2022-10-01T11:00:49.958Z,6.30
2022-10-01T11:03:29.569Z,5.20
2022-10-01T11:06:10.727Z,7.10
2022-10-01T11:08:38.942Z,6.70
2022-10-01T11:11:52.895Z,7.20
2022-10-01T11:15:10.490Z,7.00
2022-10-01T11:18:11.667Z,5.90
2022-10-01T11:20:51.359Z,6.50
2022-10-01T11:23:47.166Z,6.70
2022-10-01T11:26:43.437Z,5.80
2022-10-01T11:29:29.281Z,6.20
2022-10-01T11:32:22.283Z,6.50
2022-10-01T11:35:21.517Z,6.00
2022-10-01T11:37:52.095Z,6.50
2022-10-01T11:40:43.320Z,6.80
2022-10-01T11:43:27.736Z,5.60
2022-10-01T11:46:08.691Z,6.20
2022-10-01T11:48:51.393Z,5.20
2022-10-01T11:51:33.813Z,5.50
2022-10-01T11:54:11.903Z,4.60
2022-10-01T11:57:07.098Z,5.10
2022-10-01T11:59:52.020Z,5.50
2022-10-01T12:02:49.574Z,4.80
2022-10-01T12:05:31.497Z,5.40
2022-10-01T12:08:20.212Z,5.90
2022-10-01T12:11:19.836Z,4.90
2022-10-01T12:14:23.154Z,4.90
2022-10-01T12:17:03.795Z,3.90
2022-10-01T12:19:36.449Z,5.10
2022-10-01T12:22:24.303Z,5.50
2022-10-01T12:24:53.317Z,5.00
2022-10-01T12:27:29.050Z,4.30
2022-10-01T12:30:07.890Z,5.30
2022-10-01T12:33:01.574Z,5.10
2022-10-01T12:36:25.050Z,5.30
2022-10-01T12:39:45.004Z,5.00
2022-10-01T12:43:05.594Z,4.80
2022-10-01T12:46:24.754Z,4.30
2022-10-01T12:49:01.452Z,4.50
2022-10-01T12:51:45.122Z,4.60
2022-10-01T12:54:47.600Z,5.10
2022-10-01T12:57:52.541Z,5.10
2022-10-01T13:00:24.540Z,4.60
2022-10-01T13:03:22.223Z,4.70
2022-10-01T13:06:35.758Z,4.70
2022-10-01T13:09:28.983Z,5.00
2022-10-01T13:12:25.903Z,4.90
2022-10-01T13:14:54.597Z,5.30
2022-10-01T13:17:38.009Z,4.40
2022-10-01T13:20:25.137Z,4.60
2022-10-01T13:23:24.166Z,4.20
2022-10-01T13:26:39.873Z,5.20
2022-10-01T13:30:02.581Z,5.20
2022-10-01T13:32:36.986Z,5.00
2022-10-01T13:35:52.245Z,5.20
2022-10-01T13:38:38.370Z,5.60
2022-10-01T13:41:18.300Z,5.40
2022-10-01T13:44:01.859Z,5.80
2022-10-01T13:46:34.966Z,5.60
2022-10-01T13:49:24.812Z,5.10
2022-10-01T13:51:52.993Z,4.60
2022-10-01T13:54:36.911Z,4.90
2022-10-01T13:57:38.494Z,5.00
2022-10-01T14:00:10.879Z,5.10
2022-10-01T14:02:44.903Z,5.20
2022-10-01T14:05:17.331Z,3.90
2022-10-01T14:07:49.755Z,3.50
2022-10-01T14:10:17.232Z,4.80
2022-10-01T14:13:21.797Z,5.60
2022-10-01T14:15:59.246Z,5.40
2022-10-01T14:18:42.348Z,5.60
2022-10-01T14:22:09.826Z,5.30
2022-10-01T14:25:16.544Z,4.80
2022-10-01T14:28:13.887Z,5.90
2022-10-01T14:31:15.161Z,5.60
2022-10-01T14:34:11.929Z,5.30
2022-10-01T14:36:49.011Z,6.00
2022-10-01T14:39:27.337Z,5.10
2022-10-01T14:41:56.550Z,6.50
2022-10-01T14:44:45.623Z,6.60
2022-10-01T14:47:23.607Z,6.60
2022-10-01T14:49:51.617Z,5.30
2022-10-01T14:52:48.816Z,6.60
2022-10-01T14:55:21.515Z,7.30
2022-10-01T14:57:53.768Z,5.00
2022-10-01T15:00:27.932Z,6.00
2022-10-01T15:03:14.871Z,6.70
2022-10-01T15:05:43.191Z,7.10
2022-10-01T15:08:44.460Z,6.90
2022-10-01T15:11:33.739Z,6.90
2022-10-01T15:14:10.058Z,6.90
2022-10-01T15:16:37.481Z,7.50
2022-10-01T15:19:15.235Z,7.20
2022-10-01T15:21:50.938Z,6.80
2022-10-01T15:24:40.395Z,7.10
2022-10-01T15:27:11.689Z,7.10
2022-10-01T15:29:43.016Z,6.50
2022-10-01T15:32:16.855Z,7.20
2022-10-01T15:34:52.856Z,6.40
2022-10-01T15:37:28.041Z,7.50
2022-10-01T15:39:55.827Z,6.90
2022-10-01T15:42:30.271Z,7.90
2022-10-01T15:45:22.799Z,6.10
2022-10-01T15:47:56.326Z,7.30
2022-10-01T15:50:31.896Z,7.00
2022-10-01T15:53:06.709Z,7.10
2022-10-01T15:55:41.633Z,6.70
2022-10-01T15:58:16.621Z,9.60
2022-10-01T16:00:47.052Z,8.00
2022-10-01T16:03:31.941Z,7.40
2022-10-01T16:06:01.609Z,7.50
2022-10-01T16:08:33.995Z,6.90
2022-10-01T16:11:12.422Z,6.90
2022-10-01T16:13:46.491Z,7.10
2022-10-01T16:16:13.076Z,7.70
2022-10-01T16:18:40.712Z,9.00
2022-10-01T16:21:10.580Z,8.00
2022-10-01T16:23:48.756Z,10.50
2022-10-01T16:26:30.846Z,9.60
2022-10-01T16:29:19.808Z,9.60
2022-10-01T16:31:47.020Z,9.90
2022-10-01T16:34:18.089Z,10.30
2022-10-01T16:36:45.938Z,11.20
2022-10-01T16:39:14.797Z,11.10
2022-10-01T16:41:53.445Z,11.10
2022-10-01T16:44:28.507Z,10.60
2022-10-01T16:46:57.666Z,11.30
2022-10-01T16:49:25.711Z,10.30
2022-10-01T16:51:53.532Z,10.50
2022-10-01T16:54:24.363Z,9.20
2022-10-01T16:56:54.518Z,10.20
2022-10-01T16:59:23.119Z,10.50
2022-10-01T17:01:54.201Z,9.30
2022-10-01T17:04:22.942Z,8.90
2022-10-01T17:06:49.919Z,8.90
2022-10-01T17:09:18.795Z,9.10
2022-10-01T17:11:47.062Z,9.70
2022-10-01T17:14:20.647Z,10.10
2022-10-01T17:16:50.884Z,10.10
2022-10-01T17:19:21.986Z,4.50
2022-10-01T17:21:50.929Z,8.50
2022-10-01T17:24:19.821Z,7.80
2022-10-01T17:26:49.412Z,9.90
2022-10-01T17:29:20.239Z,9.30
2022-10-01T17:31:53.952Z,11.00
2022-10-01T17:34:22.863Z,11.60
2022-10-01T17:36:50.364Z,9.60
2022-10-01T17:39:19.463Z,12.70
2022-10-01T17:41:47.165Z,11.90
2022-10-01T17:44:15.442Z,8.80
2022-10-01T17:46:44.779Z,9.90
2022-10-01T17:49:14.417Z,10.80
2022-10-01T17:51:42.952Z,10.70
2022-10-01T17:54:09.898Z,10.80
2022-10-01T17:56:38.635Z,10.70
2022-10-01T17:59:06.982Z,11.50
2022-10-01T18:01:36.290Z,11.00
2022-10-01T18:04:05.570Z,10.30
2022-10-01T18:06:33.577Z,10.60
2022-10-01T18:09:02.509Z,10.60
2022-10-01T18:11:29.595Z,10.90
2022-10-01T18:13:57.090Z,11.20
2022-10-01T18:16:25.453Z,11.80
2022-10-01T18:21:47.899Z,10.70
2022-10-01T18:24:16.011Z,10.30
2022-10-01T18:26:44.492Z,10.80
2022-10-01T18:29:22.823Z,11.20
2022-10-01T18:32:10.927Z,11.90
2022-10-01T18:34:54.366Z,10.40
2022-10-01T18:37:37.665Z,10.70
2022-10-01T18:40:20.431Z,10.60
2022-10-01T18:43:15.741Z,10.30
2022-10-01T18:46:05.244Z,10.60
2022-10-01T18:48:48.074Z,9.00
2022-10-01T18:52:04.590Z,8.60
2022-10-01T18:55:21.368Z,9.20
2022-10-01T18:58:38.732Z,5.50
2022-10-01T19:02:00.830Z,4.70
2022-10-01T19:04:46.077Z,3.70
2022-10-01T19:07:42.550Z,2.70
2022-10-01T19:10:37.320Z,3.20
2022-10-01T19:13:35.395Z,2.90
2022-10-01T19:16:50.796Z,2.80
2022-10-01T19:19:56.931Z,3.10
2022-10-01T19:22:43.888Z,1.20
2022-10-01T19:25:27.538Z,3.20
2022-10-01T19:28:30.130Z,3.40
2022-10-01T19:31:09.784Z,3.80
2022-10-01T19:33:48.343Z,3.70
2022-10-01T19:36:30.406Z,1.90
2022-10-01T19:39:08.606Z,2.80
2022-10-01T19:42:05.199Z,2.40
2022-10-01T19:44:44.876Z,2.30
2022-10-01T19:47:31.658Z,2.00
2022-10-01T19:50:11.907Z,2.50
2022-10-01T19:52:40.839Z,1.90
2022-10-01T19:55:19.255Z,3.10
2022-10-01T19:57:46.772Z,2.80
2022-10-01T20:00:19.044Z,3.40
2022-10-01T20:03:09.556Z,3.20
2022-10-01T20:06:05.446Z,2.10
2022-10-01T20:08:47.177Z,2.10
2022-10-01T20:11:44.112Z,1.50
2022-10-01T20:14:57.401Z,2.50
2022-10-01T20:18:12.732Z,2.90
2022-10-01T20:21:20.888Z,2.40
2022-10-01T20:24:17.817Z,2.80
2022-10-01T20:27:49.732Z,2.40
2022-10-01T20:30:20.584Z,2.70
2022-10-01T20:33:19.533Z,3.10
2022-10-01T20:36:43.463Z,3.00
2022-10-01T20:39:25.357Z,2.40
2022-10-01T20:41:54.169Z,2.50
2022-10-01T20:44:28.591Z,2.70
2022-10-01T20:47:23.212Z,2.90
2022-10-01T20:50:24.972Z,2.90
2022-10-01T20:53:08.483Z,2.90
2022-10-01T20:55:45.362Z,2.10
2022-10-01T20:58:23.092Z,2.20
2022-10-01T21:01:00.561Z,2.80
2022-10-01T21:03:42.204Z,2.50
2022-10-01T21:06:25.962Z,1.40
2022-10-01T21:08:58.189Z,2.70
2022-10-01T21:11:27.549Z,2.90
2022-10-01T21:14:14.577Z,2.60
2022-10-01T21:17:21.214Z,2.50
2022-10-01T21:20:05.415Z,2.60
2022-10-01T21:22:45.837Z,2.80
2022-10-01T21:25:42.846Z,2.50
2022-10-01T21:29:00.567Z,2.30
2022-10-01T21:32:17.908Z,2.60
2022-10-01T21:35:13.252Z,2.40
2022-10-01T21:37:48.513Z,2.50
2022-10-01T21:40:54.252Z,2.40
2022-10-01T21:43:35.772Z,3.10
2022-10-01T21:46:31.795Z,2.60
2022-10-01T21:49:10.437Z,2.20
2022-10-01T21:52:26.395Z,2.90
2022-10-01T21:55:22.725Z,2.60
2022-10-01T21:58:20.331Z,2.20
2022-10-01T22:01:21.142Z,2.70
2022-10-01T22:03:56.802Z,2.40
2022-10-01T22:06:44.646Z,2.60
2022-10-01T22:09:37.481Z,2.80
2022-10-01T22:12:06.905Z,2.80
2022-10-01T22:14:33.729Z,2.90
2022-10-01T22:17:17.166Z,2.50
2022-10-01T22:19:53.192Z,2.60
2022-10-01T22:22:32.617Z,2.90
2022-10-01T22:25:02.158Z,2.60
2022-10-01T22:27:48.146Z,2.70
2022-10-01T22:30:22.101Z,2.80
2022-10-01T22:32:59.046Z,2.90
2022-10-01T22:35:54.477Z,2.50
2022-10-01T22:38:45.116Z,2.60
2022-10-01T22:41:55.408Z,2.50
2022-10-01T22:44:22.900Z,2.50
2022-10-01T22:47:05.380Z,2.60
2022-10-01T22:49:51.913Z,2.70
2022-10-01T22:52:32.727Z,2.50
2022-10-01T22:55:27.033Z,3.00
2022-10-01T22:58:18.313Z,3.20
2022-10-01T23:01:11.592Z,3.00
2022-10-01T23:03:59.139Z,2.80
2022-10-01T23:07:10.384Z,2.90
2022-10-01T23:10:11.420Z,2.80
2022-10-01T23:13:18.671Z,2.60
2022-10-01T23:16:13.142Z,2.50
2022-10-01T23:18:48.605Z,2.30
2022-10-01T23:21:49.849Z,2.50
2022-10-01T23:24:48.387Z,1.90
2022-10-01T23:28:00.001Z,2.40
2022-10-01T23:30:40.690Z,2.70
2022-10-01T23:33:44.611Z,2.40
2022-10-01T23:36:42.376Z,2.40
2022-10-01T23:39:45.523Z,2.20
2022-10-01T23:42:36.848Z,2.10
2022-10-01T23:45:24.374Z,2.70
2022-10-01T23:48:17.522Z,2.40
2022-10-01T23:51:11.335Z,2.00
2022-10-01T23:53:56.723Z,2.00
2022-10-01T23:56:50.410Z,2.20
2022-10-01T23:59:58.532Z,2.10
